Morning Cindy — 3FQY7 — position and weather

sailwx.info

Track history (hours):
 
Tides and Currents Weather Stations Pressure Air Temp Water Temp Dewpoint Dewpoint Depression Visibility Wind Speed Wind Dir Waves Ship Positions

Morning Cindy

Last reported at 2018-Jan-19 08:58 UTC. Time now 2018-Jan-19 13:34 UTC.
Position N 31°08' E 122°33'.

Length 199 m; draft 9 m.

Type: Cargo ship. MMSI: 353647000.

Date/timePositionNaut miles runAvg speedWind from/ knotsBaromVisibWave heightAir tempDewpointWater temp
2018-Jan-19 08:58N 31°08' E 122°33'710.8
2018-Jan-19 08:20N 31°06' E 122°25'513.2
2018-Jan-19 07:58N 31°06' E 122°20'815.1
2018-Jan-19 07:27N 31°10' E 122°12'714.9
2018-Jan-19 07:00N 31°14' E 122°05'814.9
2018-Jan-19 06:29N 31°15' E 121°56'713.9
2018-Jan-19 06:00N 31°17' E 121°49'711.0
2018-Jan-19 05:24N 31°19' E 121°41'2 0.2
2018-Jan-18 19:04N 31°19' E 121°44'1 7.3
2018-Jan-18 19:00N 31°19' E 121°45'4 7.8
2018-Jan-18 18:30N 31°17' E 121°49'3 7.0
2018-Jan-18 18:00N 31°16' E 121°53'4 6.9
2018-Jan-18 17:29N 31°15' E 121°57'4 7.9
2018-Jan-18 16:59N 31°15' E 122°01'2 5.0
2018-Jan-18 16:30N 31°14' E 122°04'3 5.2
2018-Jan-18 15:58N 31°13' E 122°07'3 6.1
2018-Jan-18 15:30N 31°11' E 122°10'4 8.1
2018-Jan-18 15:00N 31°09' E 122°13'5 9.0
2018-Jan-18 14:30N 31°07' E 122°18'3 6.9
2018-Jan-18 14:00N 31°06' E 122°22'2 4.3
2018-Jan-18 13:30N 31°06' E 122°24'2 3.0
2018-Jan-18 12:55N 31°07' E 122°26'1 2.0
2018-Jan-18 12:28N 31°07' E 122°25'1 1.6
2018-Jan-18 11:57N 31°07' E 122°26'3 6.2
2018-Jan-18 11:29N 31°07' E 122°29'  
Track history (hours):
 
Tides and Currents Weather Stations Pressure Air Temp Water Temp Dewpoint Dewpoint Depression Visibility Wind Speed Wind Dir Waves Ship Positions

Morning Cindy

Last reported at 2018-Jan-19 08:58 UTC. Time now 2018-Jan-19 13:34 UTC.
Position N 31°08' E 122°33'.

Length 199 m; draft 9 m.

Type: Cargo ship. MMSI: 353647000.

Date/timePositionNaut miles runAvg speedWind from/ knotsBaromVisibWave heightAir tempDewpointWater temp
2018-Jan-19 08:58N 31°08' E 122°33'710.8
2018-Jan-19 08:20N 31°06' E 122°25'513.2
2018-Jan-19 07:58N 31°06' E 122°20'815.1
2018-Jan-19 07:27N 31°10' E 122°12'714.9
2018-Jan-19 07:00N 31°14' E 122°05'814.9
2018-Jan-19 06:29N 31°15' E 121°56'713.9
2018-Jan-19 06:00N 31°17' E 121°49'711.0
2018-Jan-19 05:24N 31°19' E 121°41'2 0.2
2018-Jan-18 19:04N 31°19' E 121°44'1 7.3
2018-Jan-18 19:00N 31°19' E 121°45'4 7.8
2018-Jan-18 18:30N 31°17' E 121°49'3 7.0
2018-Jan-18 18:00N 31°16' E 121°53'4 6.9
2018-Jan-18 17:29N 31°15' E 121°57'4 7.9
2018-Jan-18 16:59N 31°15' E 122°01'2 5.0
2018-Jan-18 16:30N 31°14' E 122°04'3 5.2
2018-Jan-18 15:58N 31°13' E 122°07'3 6.1
2018-Jan-18 15:30N 31°11' E 122°10'4 8.1
2018-Jan-18 15:00N 31°09' E 122°13'5 9.0
2018-Jan-18 14:30N 31°07' E 122°18'3 6.9
2018-Jan-18 14:00N 31°06' E 122°22'2 4.3
2018-Jan-18 13:30N 31°06' E 122°24'2 3.0
2018-Jan-18 12:55N 31°07' E 122°26'1 2.0
2018-Jan-18 12:28N 31°07' E 122°25'1 1.6
2018-Jan-18 11:57N 31°07' E 122°26'3 6.2
2018-Jan-18 11:29N 31°07' E 122°29'  

Dump ship's entire track history